Time;durP1;ratioP1;P1;durP2;ratioP2;P2;SDS_P1;SDS_P2;PMS_P1;PMS_P2;Temp;Humidity;BMP_temperature;BMP_pressure;BME280_temperature;BME280_humidity;BME280_pressure;Samples;Min_cycle;Max_cycle;Signal;HPM_P1;HPM_P2
2022/11/26 00:01:38;;;;;;;21.17;19.55;;;;;;;10.58;62.58;102485.34;4975767;28;20027;-70
2022/11/26 00:04:05;;;;;;;22.55;20.67;;;;;;;10.57;62.82;102483.69;4973976;28;20499;-70
2022/11/26 00:06:35;;;;;;;21.63;19.95;;;;;;;10.56;62.97;102479.34;4975112;28;20042;-70
2022/11/26 00:09:02;;;;;;;23.85;22.15;;;;;;;10.55;62.92;102485.75;4975280;28;20062;-75
2022/11/26 00:11:28;;;;;;;22.27;20.45;;;;;;;10.54;62.82;102489.50;4975536;28;20031;-67
2022/11/26 00:13:53;;;;;;;22.48;20.70;;;;;;;10.54;62.88;102492.22;4974145;28;20058;-70
2022/11/26 00:16:19;;;;;;;22.98;20.67;;;;;;;10.52;62.93;102494.28;4975418;28;20035;-68
2022/11/26 00:18:44;;;;;;;22.80;20.42;;;;;;;10.52;62.80;102496.97;4973968;28;20422;-69
2022/11/26 00:21:25;;;;;;;22.50;20.90;;;;;;;10.51;62.88;102495.31;4974830;28;20035;-68
2022/11/26 00:23:52;;;;;;;21.63;19.77;;;;;;;10.49;62.89;102508.19;4973874;28;20039;-68
2022/11/26 00:26:21;;;;;;;22.15;20.55;;;;;;;10.49;62.81;102508.19;4990028;28;20395;-69
2022/11/26 00:28:51;;;;;;;21.75;20.02;;;;;;;10.48;62.83;102509.19;4974667;28;20058;-69
2022/11/26 00:31:17;;;;;;;23.02;21.25;;;;;;;10.47;62.78;102499.44;4974959;28;20042;-70
2022/11/26 00:33:42;;;;;;;21.73;20.05;;;;;;;10.45;62.94;102496.91;4975006;28;20375;-69
2022/11/26 00:36:28;;;;;;;22.42;20.55;;;;;;;10.45;62.78;102498.78;4974878;28;20364;-69
2022/11/26 00:38:59;;;;;;;21.55;20.00;;;;;;;10.43;62.87;102493.56;4974948;28;20513;-69
2022/11/26 00:41:28;;;;;;;21.60;19.90;;;;;;;10.42;62.95;102504.59;4973843;28;20030;-69
2022/11/26 00:43:53;;;;;;;21.38;19.50;;;;;;;10.42;62.63;102499.19;4973258;28;20169;-69
2022/11/26 00:46:20;;;;;;;21.98;20.25;;;;;;;10.40;62.82;102508.31;4974110;28;20113;-69
2022/11/26 00:48:46;;;;;;;21.60;19.90;;;;;;;10.38;62.93;102502.31;4975402;28;20058;-69
2022/11/26 00:51:15;;;;;;;23.67;21.88;;;;;;;10.38;62.86;102510.41;4974964;28;20446;-69
2022/11/26 00:53:42;;;;;;;19.65;18.08;;;;;;;10.38;62.66;102507.72;4974838;28;20023;-71
2022/11/26 00:56:14;;;;;;;21.27;19.92;;;;;;;10.37;62.84;102497.09;4974456;28;20046;-74
2022/11/26 00:58:39;;;;;;;23.23;21.38;;;;;;;10.36;62.88;102507.06;4975036;28;20031;-69
2022/11/26 01:01:04;;;;;;;21.17;19.55;;;;;;;10.35;62.91;102505.38;4975439;28;20062;-69
2022/11/26 01:03:30;;;;;;;20.15;18.65;;;;;;;10.34;63.10;102506.41;4975147;28;20455;-70
2022/11/26 01:05:57;;;;;;;22.08;20.17;;;;;;;10.33;63.03;102506.59;4974914;28;20031;-69
2022/11/26 01:08:34;;;;;;;22.70;20.45;;;;;;;10.32;62.60;102505.78;4974503;28;20034;-69
2022/11/26 01:11:02;;;;;;;22.30;20.27;;;;;;;10.31;62.88;102501.44;4975180;28;20124;-70
2022/11/26 01:13:28;;;;;;;22.80;20.80;;;;;;;10.30;63.08;102497.03;4974503;28;20027;-69
2022/11/26 01:15:55;;;;;;;21.40;19.67;;;;;;;10.30;62.97;102504.31;4973370;28;20464;-69
2022/11/26 01:18:22;;;;;;;23.20;21.30;;;;;;;10.29;62.89;102503.47;4973230;28;20031;-69
2022/11/26 01:20:48;;;;;;;20.92;19.33;;;;;;;10.28;62.90;102507.22;4974536;28;20074;-69
2022/11/26 01:23:15;;;;;;;22.92;21.17;;;;;;;10.26;62.81;102509.25;4974376;28;20031;-70
2022/11/26 01:25:41;;;;;;;21.55;19.75;;;;;;;10.25;62.89;102502.16;4974543;28;20050;-70
2022/11/26 01:28:15;;;;;;;21.35;19.70;;;;;;;10.25;62.88;102506.75;4974375;28;20082;-69
2022/11/26 01:30:40;;;;;;;20.23;18.73;;;;;;;10.24;62.84;102510.47;4974960;28;20447;-70
2022/11/26 01:33:06;;;;;;;21.10;19.40;;;;;;;10.23;62.91;102522.31;4974435;28;20094;-69
2022/11/26 01:35:32;;;;;;;21.00;19.60;;;;;;;10.22;62.92;102516.06;4976829;28;20031;-69
2022/11/26 01:37:57;;;;;;;20.88;19.23;;;;;;;10.22;62.91;102529.56;4977903;28;20093;-69
2022/11/26 01:40:25;;;;;;;22.77;21.13;;;;;;;10.20;62.94;102526.22;4978147;28;20158;-69
2022/11/26 01:43:10;;;;;;;21.98;19.77;;;;;;;10.19;63.05;102527.28;4977789;28;20057;-72
2022/11/26 01:45:36;;;;;;;21.38;19.98;;;;;;;10.18;63.00;102528.31;4977817;28;20046;-69
2022/11/26 01:48:09;;;;;;;19.92;18.52;;;;;;;10.16;62.95;102531.19;4977948;28;20061;-69
2022/11/26 01:50:47;;;;;;;21.75;20.05;;;;;;;10.14;63.01;102535.94;4978427;28;20019;-70
2022/11/26 01:53:19;;;;;;;20.30;18.70;;;;;;;10.15;62.82;102525.97;4977919;28;20459;-73
2022/11/26 01:55:48;;;;;;;20.80;19.08;;;;;;;10.14;62.87;102535.13;4977928;28;20030;-69
2022/11/26 01:58:19;;;;;;;21.38;19.27;;;;;;;10.13;62.94;102546.94;4978053;28;20043;-69
2022/11/26 02:00:47;;;;;;;19.75;18.55;;;;;;;10.12;62.87;102545.28;4976823;28;20027;-69
2022/11/26 02:03:12;;;;;;;21.42;19.80;;;;;;;10.10;62.94;102544.63;4992594;28;20027;-75
2022/11/26 02:06:00;;;;;;;20.88;19.23;;;;;;;10.10;63.10;102558.97;4977649;28;20390;-69
2022/11/26 02:08:28;;;;;;;23.05;21.08;;;;;;;10.08;63.04;102552.09;4977738;28;20034;-69
2022/11/26 02:10:54;;;;;;;20.52;18.67;;;;;;;10.08;62.90;102554.78;4977366;28;20027;-69
2022/11/26 02:13:21;;;;;;;22.88;20.85;;;;;;;10.07;62.83;102551.25;4977469;28;20030;-69
2022/11/26 02:16:05;;;;;;;22.65;20.85;;;;;;;10.06;63.21;102548.78;4977196;28;20394;-69
2022/11/26 02:18:40;;;;;;;22.17;20.25;;;;;;;10.05;62.51;102547.09;4977462;28;20057;-68
2022/11/26 02:21:15;;;;;;;19.90;18.50;;;;;;;10.04;62.86;102548.13;4977456;28;20467;-69
2022/11/26 02:24:07;;;;;;;20.23;18.73;;;;;;;10.03;62.88;102549.13;4977611;28;20026;-69
2022/11/26 02:26:36;;;;;;;21.45;19.83;;;;;;;10.01;62.90;102546.66;4977334;28;20393;-68
2022/11/26 02:29:37;;;;;;;20.77;19.02;;;;;;;9.99;62.88;102550.59;4977264;28;20128;-70
2022/11/26 02:32:16;;;;;;;20.52;18.83;;;;;;;9.98;62.89;102552.44;4976292;28;20031;-68
2022/11/26 02:34:57;;;;;;;21.50;19.65;;;;;;;9.97;62.75;102550.75;4977463;28;20030;-69
2022/11/26 02:37:47;;;;;;;21.33;19.73;;;;;;;9.96;62.81;102551.81;4977603;28;20023;-69
2022/11/26 02:40:13;;;;;;;19.67;18.13;;;;;;;9.95;62.92;102550.13;4971925;28;20046;-69
2022/11/26 02:42:38;;;;;;;20.08;18.48;;;;;;;9.94;62.89;102551.97;4976974;28;20042;-69
2022/11/26 02:45:10;;;;;;;20.70;18.90;;;;;;;9.93;62.97;102553.03;4992260;28;20391;-69
2022/11/26 02:47:39;;;;;;;22.40;20.67;;;;;;;9.92;62.95;102556.72;4975840;28;20459;-69
2022/11/26 02:50:10;;;;;;;22.45;20.65;;;;;;;9.92;62.99;102555.91;4977156;28;20073;-69
2022/11/26 02:52:39;;;;;;;21.55;19.90;;;;;;;9.91;63.07;102565.88;4976518;28;20502;-69
2022/11/26 02:55:07;;;;;;;20.90;19.40;;;;;;;9.90;63.33;102569.63;4976482;28;20030;-69
2022/11/26 02:57:40;;;;;;;21.55;19.55;;;;;;;9.89;63.02;102567.94;4976926;28;20022;-68
2022/11/26 03:00:06;;;;;;;19.98;18.27;;;;;;;9.89;62.94;102575.19;4976503;28;20110;-69
2022/11/26 03:02:40;;;;;;;21.83;20.10;;;;;;;9.87;62.93;102572.69;4976922;28;20050;-69
2022/11/26 03:05:07;;;;;;;20.48;19.23;;;;;;;9.87;63.04;102582.66;4976628;28;20030;-69
2022/11/26 03:07:34;;;;;;;22.48;20.10;;;;;;;9.86;62.94;102572.88;4976429;28;20467;-68
2022/11/26 03:10:01;;;;;;;21.85;19.95;;;;;;;9.85;62.97;102582.00;4976984;28;20039;-69
2022/11/26 03:12:27;;;;;;;21.65;19.70;;;;;;;9.85;63.03;102584.69;4975147;28;20427;-68
2022/11/26 03:14:52;;;;;;;21.50;19.90;;;;;;;9.84;62.98;102581.16;4976416;28;20034;-68
2022/11/26 03:17:18;;;;;;;22.75;20.95;;;;;;;9.83;63.02;102579.50;4976890;28;20131;-69
2022/11/26 03:19:44;;;;;;;19.00;17.48;;;;;;;9.81;62.87;102575.34;4975125;28;20030;-68
2022/11/26 03:22:10;;;;;;;19.27;17.75;;;;;;;9.81;63.22;102578.84;4976628;28;20089;-69
2022/11/26 03:24:36;;;;;;;21.35;19.52;;;;;;;9.79;63.05;102591.72;4976065;28;20038;-69
2022/11/26 03:27:02;;;;;;;20.73;19.40;;;;;;;9.79;62.85;102582.78;4976756;28;20431;-68
2022/11/26 03:29:27;;;;;;;22.25;20.45;;;;;;;9.78;62.98;102591.88;4976023;28;20031;-68
2022/11/26 03:31:53;;;;;;;20.17;18.58;;;;;;;9.78;62.63;102591.88;4976129;28;20062;-69
2022/11/26 03:34:18;;;;;;;19.67;18.23;;;;;;;9.75;62.93;102583.16;4991299;28;20042;-70
2022/11/26 03:36:44;;;;;;;19.33;18.00;;;;;;;9.75;62.99;102585.00;4976219;28;20046;-71
2022/11/26 03:39:09;;;;;;;20.35;18.65;;;;;;;9.74;63.00;102584.19;4975968;28;20062;-69
2022/11/26 03:41:35;;;;;;;20.65;19.15;;;;;;;9.73;63.15;102589.78;4976111;28;20390;-69
2022/11/26 03:44:00;;;;;;;20.60;18.73;;;;;;;9.72;63.08;102586.22;4976004;28;20106;-69
2022/11/26 03:46:25;;;;;;;19.95;18.33;;;;;;;9.71;63.01;102591.84;4975234;28;20066;-74
2022/11/26 03:48:51;;;;;;;20.75;19.23;;;;;;;9.70;62.89;102592.84;4975748;28;20383;-69
2022/11/26 03:51:16;;;;;;;20.95;19.30;;;;;;;9.70;62.89;102596.41;4974446;28;20046;-69
2022/11/26 03:53:41;;;;;;;20.15;18.63;;;;;;;9.69;63.15;102602.81;4990575;28;20035;-69
2022/11/26 03:56:07;;;;;;;19.27;17.70;;;;;;;9.68;62.89;102600.31;4974512;28;20083;-69
2022/11/26 03:58:33;;;;;;;21.50;19.52;;;;;;;9.67;62.91;102609.44;4973899;28;20049;-70
2022/11/26 04:00:58;;;;;;;19.48;17.98;;;;;;;9.65;63.01;102617.72;4975285;28;20023;-69
2022/11/26 04:03:23;;;;;;;20.30;18.98;;;;;;;9.65;63.08;102611.47;4976067;28;20031;-70
2022/11/26 04:05:49;;;;;;;20.45;18.55;;;;;;;9.65;62.95;102619.56;4975410;28;20034;-70
2022/11/26 04:08:14;;;;;;;19.20;17.90;;;;;;;9.63;63.08;102617.06;4975400;28;20042;-71
2022/11/26 04:10:39;;;;;;;21.92;20.10;;;;;;;9.63;63.01;102613.56;4975328;28;20390;-71
2022/11/26 04:13:05;;;;;;;20.80;19.35;;;;;;;9.62;62.92;102607.28;4990416;28;20046;-70
2022/11/26 04:15:30;;;;;;;19.77;18.33;;;;;;;9.61;62.98;102602.09;4975290;28;20375;-70
2022/11/26 04:17:56;;;;;;;18.95;17.45;;;;;;;9.60;63.07;102611.22;4975349;28;20043;-70
2022/11/26 04:20:22;;;;;;;19.10;17.55;;;;;;;9.60;63.04;102619.31;4990238;28;20383;-70
2022/11/26 04:22:47;;;;;;;19.85;18.40;;;;;;;9.58;62.91;102611.41;4975169;28;20058;-70
2022/11/26 04:25:12;;;;;;;20.25;18.55;;;;;;;9.57;62.91;102615.13;4975206;28;20059;-70
2022/11/26 04:27:38;;;;;;;20.83;19.23;;;;;;;9.57;63.12;102614.28;4975265;28;20035;-70
2022/11/26 04:30:05;;;;;;;19.00;17.45;;;;;;;9.56;63.18;102615.34;4975662;28;20041;-70
2022/11/26 04:32:30;;;;;;;20.85;19.13;;;;;;;9.54;63.06;102621.72;4990438;28;20027;-76
2022/11/26 04:34:56;;;;;;;20.77;18.95;;;;;;;9.54;63.07;102620.91;4974795;28;20030;-70
2022/11/26 04:37:21;;;;;;;19.63;18.02;;;;;;;9.52;63.07;102621.13;4975036;28;20383;-70
2022/11/26 04:39:46;;;;;;;20.83;18.95;;;;;;;9.53;62.94;102611.16;4973657;28;20023;-70
2022/11/26 04:42:12;;;;;;;20.35;18.83;;;;;;;9.52;63.19;102614.84;4989985;28;20065;-70
2022/11/26 04:44:37;;;;;;;20.40;18.83;;;;;;;9.50;62.98;102623.16;4974796;28;20055;-70
2022/11/26 04:47:02;;;;;;;20.33;18.85;;;;;;;9.50;63.13;102622.34;4973757;28;20034;-70
2022/11/26 04:49:28;;;;;;;19.38;17.98;;;;;;;9.49;63.02;102629.56;4974604;28;20034;-70
2022/11/26 04:51:53;;;;;;;19.27;17.70;;;;;;;9.49;62.87;102623.34;4974791;28;20062;-68
2022/11/26 04:54:18;;;;;;;19.73;18.10;;;;;;;9.47;63.03;102625.38;4975060;28;20023;-69
2022/11/26 04:56:44;;;;;;;19.88;18.40;;;;;;;9.45;63.06;102614.81;4974725;28;20030;-69
2022/11/26 04:59:09;;;;;;;18.25;17.08;;;;;;;9.47;63.09;102611.91;4974786;28;20445;-69
2022/11/26 05:01:35;;;;;;;18.80;17.17;;;;;;;9.46;63.12;102618.31;4974695;28;20526;-69
2022/11/26 05:04:00;;;;;;;18.70;17.52;;;;;;;9.46;62.91;102615.63;4974711;28;20035;-70
2022/11/26 05:06:25;;;;;;;21.00;19.48;;;;;;;9.43;63.09;102614.16;4989692;28;20039;-69
2022/11/26 05:08:51;;;;;;;20.17;18.67;;;;;;;9.43;63.10;102621.41;4974491;28;20066;-70
2022/11/26 05:11:16;;;;;;;18.85;17.10;;;;;;;9.42;62.98;102622.41;4978991;28;20530;-69
2022/11/26 05:13:41;;;;;;;19.95;18.42;;;;;;;9.41;62.94;102621.59;4978601;28;20035;-69
2022/11/26 05:16:07;;;;;;;20.00;17.60;;;;;;;9.40;63.03;102632.56;4978837;28;20058;-70
2022/11/26 05:18:32;;;;;;;19.38;17.70;;;;;;;9.40;63.24;102641.50;4978345;28;20034;-70
2022/11/26 05:21:00;;;;;;;18.27;16.75;;;;;;;9.39;62.94;102644.38;4978485;28;20062;-70
2022/11/26 05:23:26;;;;;;;19.42;17.83;;;;;;;9.39;62.97;102647.06;4978775;28;20095;-69
2022/11/26 05:25:51;;;;;;;19.50;17.92;;;;;;;9.37;63.20;102652.66;4978357;28;20431;-69
2022/11/26 05:28:17;;;;;;;19.42;17.98;;;;;;;9.36;63.15;102650.97;4993307;28;20372;-69
2022/11/26 05:30:42;;;;;;;20.17;18.70;;;;;;;9.36;63.10;102645.59;4978579;28;20034;-69
2022/11/26 05:33:07;;;;;;;19.92;18.50;;;;;;;9.35;63.25;102649.31;4978265;28;20035;-69
2022/11/26 05:35:33;;;;;;;19.33;18.00;;;;;;;9.35;62.95;102651.16;4976826;28;20499;-69
2022/11/26 05:37:58;;;;;;;20.48;18.70;;;;;;;9.33;63.10;102659.47;4993116;28;20031;-69
2022/11/26 05:40:23;;;;;;;20.40;18.48;;;;;;;9.33;63.08;102654.06;4976758;28;20118;-69
2022/11/26 05:42:49;;;;;;;20.13;18.55;;;;;;;9.33;62.92;102662.16;4977836;28;20109;-69
2022/11/26 05:45:15;;;;;;;20.17;18.27;;;;;;;9.31;63.11;102666.88;4977968;28;20472;-70
2022/11/26 05:47:41;;;;;;;20.20;18.45;;;;;;;9.31;63.01;102672.28;4978434;28;20089;-70
2022/11/26 05:50:07;;;;;;;18.30;17.10;;;;;;;9.30;63.07;102681.41;4978291;28;20122;-70
2022/11/26 05:52:32;;;;;;;18.48;17.17;;;;;;;9.30;62.90;102676.84;4977937;28;20034;-70
2022/11/26 05:54:57;;;;;;;18.20;17.00;;;;;;;9.28;63.16;102676.19;4978073;28;20375;-69
2022/11/26 05:57:23;;;;;;;18.52;17.20;;;;;;;9.28;62.88;102673.50;4977905;28;20027;-70
2022/11/26 05:59:48;;;;;;;19.85;18.27;;;;;;;9.28;63.21;102678.88;4977841;28;20026;-70
2022/11/26 06:02:13;;;;;;;18.70;17.08;;;;;;;9.27;63.10;102681.75;4977809;28;20043;-70
2022/11/26 06:04:39;;;;;;;17.58;16.35;;;;;;;9.26;63.06;102678.22;4976678;28;20031;-75
2022/11/26 06:07:04;;;;;;;19.02;17.55;;;;;;;9.26;63.12;102672.00;4977939;28;20482;-71
2022/11/26 06:09:30;;;;;;;19.75;18.33;;;;;;;9.25;63.20;102681.13;4978140;28;20038;-70
2022/11/26 06:11:55;;;;;;;19.83;18.35;;;;;;;9.25;62.99;102683.84;4977851;28;20552;-70
2022/11/26 06:14:20;;;;;;;18.27;17.17;;;;;;;9.24;62.79;102676.75;4977590;28;20037;-71
2022/11/26 06:16:46;;;;;;;20.33;18.60;;;;;;;9.23;62.96;102669.69;4977696;28;20043;-70
2022/11/26 06:19:11;;;;;;;17.85;16.70;;;;;;;9.23;63.13;102669.69;4977775;28;20166;-70
2022/11/26 06:21:37;;;;;;;18.90;17.17;;;;;;;9.22;63.02;102670.69;4977519;28;20043;-69
2022/11/26 06:24:03;;;;;;;17.65;16.30;;;;;;;9.21;63.07;102671.72;4976448;28;20364;-70
2022/11/26 06:26:28;;;;;;;19.33;18.02;;;;;;;9.21;63.11;102682.53;4977862;28;20039;-70
2022/11/26 06:28:54;;;;;;;19.30;17.90;;;;;;;9.20;63.07;102680.84;4976890;28;20034;-70
2022/11/26 06:31:19;;;;;;;19.27;17.83;;;;;;;9.20;63.31;102680.84;4976097;28;20512;-70
2022/11/26 06:33:45;;;;;;;19.85;18.17;;;;;;;9.18;63.17;102678.34;4976414;28;20062;-70
2022/11/26 06:36:10;;;;;;;17.63;16.27;;;;;;;9.18;63.11;102681.03;4977684;28;20536;-70
2022/11/26 06:38:35;;;;;;;17.88;16.58;;;;;;;9.18;62.85;102682.91;4977139;28;20049;-71
2022/11/26 06:41:07;;;;;;;18.35;17.08;;;;;;;9.17;63.02;102681.19;4991705;28;20065;-70
2022/11/26 06:43:32;;;;;;;20.23;18.23;;;;;;;9.16;63.05;102680.38;4977714;28;20035;-70
2022/11/26 06:46:04;;;;;;;19.50;18.08;;;;;;;9.16;63.04;102696.56;4977320;28;20047;-69
2022/11/26 06:48:30;;;;;;;17.35;16.15;;;;;;;9.15;62.72;102688.63;4976616;28;20042;-70
2022/11/26 06:50:56;;;;;;;20.10;18.63;;;;;;;9.14;63.06;102692.38;4991838;28;20034;-70
2022/11/26 06:53:21;;;;;;;18.58;17.20;;;;;;;9.13;63.01;102699.63;4976889;28;20123;-71
2022/11/26 06:55:46;;;;;;;18.60;16.92;;;;;;;9.14;62.97;102695.06;4976714;28;20479;-70
2022/11/26 06:58:13;;;;;;;18.45;17.05;;;;;;;9.13;62.99;102704.19;4976456;28;20039;-70
2022/11/26 07:00:40;;;;;;;19.27;17.65;;;;;;;9.12;63.16;102694.41;4991796;28;20030;-70
2022/11/26 07:03:05;;;;;;;20.13;18.50;;;;;;;9.12;63.25;102702.50;4976620;28;20027;-70
2022/11/26 07:05:33;;;;;;;17.73;16.63;;;;;;;9.10;63.07;102711.63;4976682;28;20027;-70
2022/11/26 07:07:59;;;;;;;18.67;17.00;;;;;;;9.10;63.11;102714.31;4976708;28;20039;-70
2022/11/26 07:10:24;;;;;;;18.52;17.02;;;;;;;9.08;63.20;102713.66;4977097;28;20038;-70
2022/11/26 07:12:49;;;;;;;19.35;17.95;;;;;;;9.08;63.03;102713.66;4976621;28;20034;-69
2022/11/26 07:15:15;;;;;;;18.73;17.38;;;;;;;9.08;63.25;102713.66;4976733;28;20037;-70
2022/11/26 07:17:40;;;;;;;18.65;17.08;;;;;;;9.07;63.25;102714.69;4976466;28;20027;-69
2022/11/26 07:20:06;;;;;;;21.13;19.50;;;;;;;9.06;63.25;102723.78;4991264;28;20459;-70
2022/11/26 07:22:33;;;;;;;18.00;16.73;;;;;;;9.06;63.03;102714.84;4976297;28;20041;-70
2022/11/26 07:24:59;;;;;;;18.23;16.83;;;;;;;9.05;63.00;102716.72;4976212;28;20030;-69
2022/11/26 07:27:24;;;;;;;16.95;15.75;;;;;;;9.04;62.95;102719.59;4976179;28;20042;-70
2022/11/26 07:29:50;;;;;;;18.45;17.02;;;;;;;9.04;63.03;102731.22;4976116;28;20125;-76
2022/11/26 07:32:16;;;;;;;17.35;16.20;;;;;;;9.04;62.93;102733.91;4975584;28;20039;-70
2022/11/26 07:34:41;;;;;;;18.58;17.17;;;;;;;9.03;63.13;102726.84;4976354;28;20031;-69
2022/11/26 07:37:07;;;;;;;19.95;18.27;;;;;;;9.03;62.92;102734.09;4991216;28;20043;-70
2022/11/26 07:39:32;;;;;;;16.98;15.88;;;;;;;9.03;63.12;102734.09;4976007;28;20060;-69
2022/11/26 07:41:57;;;;;;;18.80;17.20;;;;;;;9.02;63.15;102729.72;4975667;28;20438;-70
2022/11/26 07:44:23;;;;;;;19.00;17.50;;;;;;;9.00;63.24;102731.78;4975712;28;20550;-70
2022/11/26 07:46:48;;;;;;;17.67;16.23;;;;;;;8.99;63.18;102730.91;4990941;28;20041;-69
2022/11/26 07:49:14;;;;;;;19.30;17.65;;;;;;;8.99;63.18;102722.84;4974253;28;20031;-71
2022/11/26 07:51:39;;;;;;;18.70;17.10;;;;;;;8.99;63.13;102732.78;4976035;28;20383;-70
2022/11/26 07:54:06;;;;;;;18.80;17.30;;;;;;;8.98;63.14;102737.34;4974724;28;20031;-70
2022/11/26 07:56:32;;;;;;;17.75;16.13;;;;;;;8.97;63.25;102735.69;4975746;28;20054;-69
2022/11/26 07:58:58;;;;;;;18.63;16.98;;;;;;;8.97;63.06;102738.38;4975552;28;20034;-70
2022/11/26 08:01:31;;;;;;;17.88;16.38;;;;;;;8.97;63.13;102726.72;4975576;28;20031;-70
2022/11/26 08:03:59;;;;;;;19.08;17.58;;;;;;;8.97;62.87;102734.81;4975784;28;20041;-71
2022/11/26 08:06:27;;;;;;;18.70;17.13;;;;;;;8.96;63.07;102735.84;4975379;28;20034;-71
2022/11/26 08:08:53;;;;;;;17.00;15.65;;;;;;;8.96;63.21;102738.53;4975646;28;20305;-75
2022/11/26 08:11:21;;;;;;;17.38;16.08;;;;;;;8.94;63.15;102738.72;4974383;28;20395;-71
2022/11/26 08:13:48;;;;;;;16.98;15.57;;;;;;;8.94;63.01;102738.72;4975355;28;20027;-71
2022/11/26 08:16:14;;;;;;;17.77;16.58;;;;;;;8.94;62.88;102738.72;4975720;28;20469;-70
2022/11/26 08:18:40;;;;;;;17.85;16.60;;;;;;;8.94;63.09;102738.72;4975314;28;20039;-71
2022/11/26 08:21:06;;;;;;;20.50;17.40;;;;;;;8.93;63.18;102742.44;4975219;28;20031;-71
2022/11/26 08:23:33;;;;;;;18.27;16.85;;;;;;;8.94;63.26;102740.59;4975210;28;20046;-69
2022/11/26 08:26:10;;;;;;;19.35;17.98;;;;;;;8.93;63.07;102745.16;4974950;28;20032;-71
2022/11/26 08:28:36;;;;;;;18.17;16.88;;;;;;;8.93;62.93;102749.69;4974842;28;20026;-71
2022/11/26 08:31:08;;;;;;;19.15;17.38;;;;;;;8.92;63.25;102748.88;4974744;28;20372;-70
2022/11/26 08:33:33;;;;;;;18.00;16.70;;;;;;;8.93;63.19;102755.09;4974778;28;20430;-69
2022/11/26 08:36:00;;;;;;;18.77;17.23;;;;;;;8.93;63.10;102757.78;4990585;28;20077;-71
2022/11/26 08:38:27;;;;;;;17.58;16.42;;;;;;;8.92;63.01;102759.66;4974501;28;20031;-70
2022/11/26 08:40:53;;;;;;;17.67;16.48;;;;;;;8.91;63.29;102760.66;4974899;28;20023;-70
2022/11/26 08:43:21;;;;;;;17.63;16.08;;;;;;;8.92;62.99;102756.94;4974628;28;20447;-70
2022/11/26 08:45:54;;;;;;;18.00;16.70;;;;;;;8.91;63.21;102747.19;4974410;28;20066;-70
2022/11/26 08:48:19;;;;;;;17.90;16.60;;;;;;;8.91;62.83;102749.88;4974661;28;20143;-72
2022/11/26 08:50:45;;;;;;;16.65;15.55;;;;;;;8.91;63.26;102746.34;4974823;28;20118;-70
2022/11/26 08:53:10;;;;;;;19.05;17.38;;;;;;;8.91;63.09;102760.66;4974749;28;20035;-70
2022/11/26 08:55:35;;;;;;;19.02;17.73;;;;;;;8.91;62.99;102754.44;4975159;28;20424;-70
2022/11/26 08:58:01;;;;;;;20.13;18.65;;;;;;;8.90;63.12;102767.06;4974567;28;20066;-69
2022/11/26 09:00:26;;;;;;;19.15;17.75;;;;;;;8.91;63.36;102759.81;4973709;28;20034;-69
2022/11/26 09:02:51;;;;;;;18.20;16.83;;;;;;;8.91;63.15;102770.59;4974364;28;20035;-69
2022/11/26 09:05:17;;;;;;;18.10;16.27;;;;;;;8.91;62.94;102770.59;4974206;28;20114;-70
2022/11/26 09:07:42;;;;;;;17.05;15.65;;;;;;;8.91;62.87;102774.13;4974587;28;20050;-71
2022/11/26 09:10:08;;;;;;;19.40;17.63;;;;;;;8.92;63.14;102772.25;4973800;28;20035;-70
2022/11/26 09:12:33;;;;;;;18.17;16.95;;;;;;;8.90;63.03;102780.56;4974660;28;20027;-70
2022/11/26 09:14:58;;;;;;;17.45;16.25;;;;;;;8.91;63.07;102774.13;4989360;28;20065;-76
2022/11/26 09:17:27;;;;;;;17.92;16.70;;;;;;;8.90;63.23;102767.06;4974535;28;20035;-70
2022/11/26 09:19:52;;;;;;;18.02;16.80;;;;;;;8.91;63.23;102773.28;4974534;28;20035;-70
2022/11/26 09:22:18;;;;;;;17.40;16.05;;;;;;;8.90;63.26;102774.34;4974477;28;20059;-70
2022/11/26 09:24:43;;;;;;;16.58;15.55;;;;;;;8.90;63.22;102780.56;4973029;28;20033;-70
2022/11/26 09:27:12;;;;;;;19.10;17.60;;;;;;;8.90;63.18;102785.94;4974365;28;20035;-70
2022/11/26 09:29:37;;;;;;;17.63;16.33;;;;;;;8.90;63.08;102796.72;4974247;28;20109;-69
2022/11/26 09:32:03;;;;;;;19.88;18.33;;;;;;;8.92;63.29;102810.00;4974336;28;20118;-71
2022/11/26 09:34:28;;;;;;;17.52;16.00;;;;;;;8.91;63.04;102806.47;4972422;28;20039;-69
2022/11/26 09:36:53;;;;;;;17.63;16.23;;;;;;;8.91;63.04;102797.56;4972633;28;20468;-70
2022/11/26 09:39:19;;;;;;;19.50;17.92;;;;;;;8.91;63.15;102795.69;4973999;28;20065;-69
2022/11/26 09:42:13;;;;;;;19.20;17.42;;;;;;;8.91;63.23;102803.78;4988979;28;20035;-70
2022/11/26 09:45:01;;;;;;;19.58;17.77;;;;;;;8.92;63.30;102801.91;4972829;28;20057;-69
2022/11/26 09:47:36;;;;;;;18.13;16.55;;;;;;;8.91;63.28;102794.84;4974161;28;20033;-70
2022/11/26 09:50:10;;;;;;;16.92;15.63;;;;;;;8.91;63.07;102789.47;4974227;28;20038;-75
2022/11/26 09:52:43;;;;;;;19.52;17.73;;;;;;;8.92;63.13;102796.53;4988807;28;20451;-70
2022/11/26 09:55:33;;;;;;;20.42;18.88;;;;;;;8.91;63.27;102790.31;4974362;28;20459;-70
2022/11/26 09:58:01;;;;;;;17.75;16.58;;;;;;;8.91;63.36;102801.06;4976450;28;20023;-70
2022/11/26 10:00:35;;;;;;;16.27;15.23;;;;;;;8.91;63.14;102793.00;4977624;28;20030;-70
2022/11/26 10:03:00;;;;;;;18.38;16.75;;;;;;;8.92;63.09;102792.00;4977732;28;20525;-69
2022/11/26 10:06:01;;;;;;;18.40;16.67;;;;;;;8.93;63.29;102790.97;4977507;28;20038;-69
2022/11/26 10:08:44;;;;;;;18.08;16.65;;;;;;;8.92;63.47;102781.22;4942977;28;20074;-69
2022/11/26 10:11:32;;;;;;;19.98;18.25;;;;;;;8.93;63.44;102777.47;4977383;28;20114;-69
2022/11/26 10:14:28;;;;;;;17.67;16.13;;;;;;;8.94;63.34;102775.63;4992043;28;20035;-69
2022/11/26 10:17:19;;;;;;;17.65;16.52;;;;;;;8.94;63.48;102778.31;4991472;28;20037;-69
2022/11/26 10:20:12;;;;;;;19.10;17.27;;;;;;;8.95;63.55;102774.63;4976832;28;20030;-69
2022/11/26 10:22:49;;;;;;;21.08;17.65;;;;;;;8.95;63.23;102774.63;4976688;28;20531;-71
2022/11/26 10:25:19;;;;;;;20.55;18.83;;;;;;;8.96;63.22;102779.81;4977034;28;20085;-72
2022/11/26 10:27:47;;;;;;;18.48;16.98;;;;;;;8.96;63.31;102774.41;4976717;28;20081;-70
2022/11/26 10:30:20;;;;;;;21.52;19.60;;;;;;;8.99;63.36;102778.59;4977041;28;20085;-70
2022/11/26 10:32:46;;;;;;;18.23;16.75;;;;;;;9.00;63.34;102774.91;4976548;28;20037;-71
2022/11/26 10:35:23;;;;;;;19.00;17.40;;;;;;;8.99;63.50;102779.44;4976809;28;20066;-70
2022/11/26 10:37:49;;;;;;;16.58;15.32;;;;;;;8.99;63.49;102775.91;4977379;28;20026;-73
2022/11/26 10:40:28;;;;;;;18.33;16.95;;;;;;;8.99;63.37;102765.13;4976590;28;20073;-71
2022/11/26 10:43:08;;;;;;;17.48;16.23;;;;;;;8.99;63.42;102767.81;4976792;28;20031;-70
2022/11/26 10:45:51;;;;;;;18.67;17.08;;;;;;;8.97;63.42;102773.41;4976885;28;20117;-71
2022/11/26 10:48:32;;;;;;;19.27;17.67;;;;;;;8.97;63.39;102776.13;4976484;28;20042;-73
2022/11/26 10:51:29;;;;;;;20.25;18.27;;;;;;;8.98;63.50;102768.84;4976731;28;20046;-71
2022/11/26 10:54:00;;;;;;;19.20;17.45;;;;;;;8.98;63.86;102767.00;4976535;28;20023;-72
2022/11/26 10:56:34;;;;;;;22.35;20.02;;;;;;;9.01;63.80;102766.63;4976621;28;20035;-73
2022/11/26 10:59:04;;;;;;;19.25;17.35;;;;;;;9.05;63.93;102765.25;4976493;28;20085;-72
2022/11/26 11:01:37;;;;;;;18.92;17.52;;;;;;;9.08;63.74;102766.75;4976259;28;20042;-71
2022/11/26 11:04:21;;;;;;;18.98;16.98;;;;;;;9.10;63.53;102768.22;4976474;28;20352;-71
2022/11/26 11:06:47;;;;;;;18.42;16.73;;;;;;;9.12;63.71;102769.91;4975607;28;20533;-71
2022/11/26 11:09:25;;;;;;;20.02;18.10;;;;;;;9.14;63.69;102763.28;4975808;28;20117;-72
2022/11/26 11:12:14;;;;;;;17.65;16.15;;;;;;;9.15;63.57;102764.13;4975877;28;20062;-72
2022/11/26 11:14:40;;;;;;;18.00;16.58;;;;;;;9.16;63.38;102766.66;4976427;28;20026;-72
2022/11/26 11:17:18;;;;;;;18.30;16.83;;;;;;;9.17;63.55;102764.78;4976038;28;20031;-74
2022/11/26 11:19:43;;;;;;;19.23;17.70;;;;;;;9.19;63.52;102766.28;4975899;28;20114;-72
2022/11/26 11:22:18;;;;;;;19.95;18.40;;;;;;;9.21;63.37;102763.41;4975935;28;20122;-75